createdAt,value
2023-02-04T00:01:41.658Z,2.15
2023-02-04T00:04:08.042Z,2.14
2023-02-04T00:06:34.524Z,2.15
2023-02-04T00:09:01.169Z,2.15
2023-02-04T00:11:27.850Z,2.13
2023-02-04T00:13:54.310Z,2.13
2023-02-04T00:16:20.907Z,2.12
2023-02-04T00:18:47.422Z,2.11
2023-02-04T00:21:13.834Z,2.10
2023-02-04T00:23:41.511Z,2.10
2023-02-04T00:26:08.367Z,2.09
2023-02-04T00:28:35.075Z,2.10
2023-02-04T00:31:01.737Z,2.10
2023-02-04T00:33:28.396Z,2.08
2023-02-04T00:35:54.902Z,2.06
2023-02-04T00:38:21.706Z,2.04
2023-02-04T00:40:48.209Z,2.01
2023-02-04T00:43:14.747Z,1.98
2023-02-04T00:45:41.258Z,1.97
2023-02-04T00:48:07.825Z,1.96
2023-02-04T00:50:34.297Z,1.96
2023-02-04T00:53:00.777Z,1.97
2023-02-04T00:55:27.747Z,1.98
2023-02-04T00:57:54.391Z,1.97
2023-02-04T01:00:21.172Z,1.97
2023-02-04T01:02:47.624Z,1.98
2023-02-04T01:05:14.115Z,2.02
2023-02-04T01:07:40.693Z,2.01
2023-02-04T01:10:07.296Z,2.02
2023-02-04T01:12:34.070Z,2.06
2023-02-04T01:15:00.818Z,2.11
2023-02-04T01:17:27.386Z,2.12
2023-02-04T01:19:53.880Z,2.13
2023-02-04T01:22:20.981Z,2.17
2023-02-04T01:24:47.392Z,2.17
2023-02-04T01:27:13.943Z,2.18
2023-02-04T01:29:40.380Z,2.17
2023-02-04T01:32:06.940Z,2.17
2023-02-04T01:34:33.623Z,2.18
2023-02-04T01:37:00.108Z,2.19
2023-02-04T01:39:26.963Z,2.24
2023-02-04T01:41:53.634Z,2.27
2023-02-04T01:44:20.699Z,2.27
2023-02-04T01:46:47.241Z,2.27
2023-02-04T01:49:14.094Z,2.26
2023-02-04T01:51:40.835Z,2.23
2023-02-04T01:54:12.027Z,2.20
2023-02-04T01:56:40.885Z,2.16
2023-02-04T01:59:15.995Z,2.15
2023-02-04T02:01:48.564Z,2.16
2023-02-04T02:04:18.197Z,2.17
2023-02-04T02:06:49.704Z,2.15
2023-02-04T02:09:16.402Z,2.13
2023-02-04T02:11:43.346Z,2.13
2023-02-04T02:14:10.191Z,2.10
2023-02-04T02:16:36.945Z,2.07
2023-02-04T02:19:05.727Z,2.05
2023-02-04T02:21:41.013Z,2.03
2023-02-04T02:24:27.499Z,2.00
2023-02-04T02:26:56.455Z,1.97
2023-02-04T02:29:23.929Z,1.96
2023-02-04T02:31:50.747Z,1.94
2023-02-04T02:34:18.041Z,1.91
2023-02-04T02:36:45.462Z,1.87
2023-02-04T02:39:12.056Z,1.82
2023-02-04T02:41:38.574Z,1.78
2023-02-04T02:44:05.415Z,1.74
2023-02-04T02:46:31.845Z,1.70
2023-02-04T02:48:58.446Z,1.69
2023-02-04T02:51:24.997Z,1.67
2023-02-04T02:53:51.736Z,1.66
2023-02-04T02:56:19.985Z,1.66
2023-02-04T02:58:47.122Z,1.64
2023-02-04T03:01:13.975Z,1.62
2023-02-04T03:03:48.124Z,1.62
2023-02-04T03:06:26.441Z,1.63
2023-02-04T03:08:55.599Z,1.61
2023-02-04T03:11:22.958Z,1.63
2023-02-04T03:13:51.258Z,1.61
2023-02-04T03:16:18.173Z,1.62
2023-02-04T03:18:44.936Z,1.66
2023-02-04T03:21:11.549Z,1.74
2023-02-04T03:23:38.504Z,1.81
2023-02-04T03:26:05.781Z,1.85
2023-02-04T03:28:33.271Z,1.87
2023-02-04T03:30:59.938Z,1.87
2023-02-04T03:33:28.414Z,1.87
2023-02-04T03:35:54.998Z,1.88
2023-02-04T03:38:21.440Z,1.86
2023-02-04T03:40:47.954Z,1.85
2023-02-04T03:43:14.601Z,1.81
2023-02-04T03:45:45.674Z,1.79
2023-02-04T03:48:12.504Z,1.79
2023-02-04T03:50:38.920Z,1.77
2023-02-04T03:53:05.578Z,1.75
2023-02-04T03:55:32.092Z,1.71
2023-02-04T03:57:58.715Z,1.69
2023-02-04T04:00:25.414Z,1.67
2023-02-04T04:02:52.273Z,1.65
2023-02-04T04:05:19.295Z,1.62
2023-02-04T04:07:45.953Z,1.58
2023-02-04T04:10:12.897Z,1.55
2023-02-04T04:12:39.432Z,1.53
2023-02-04T04:15:06.692Z,1.50
2023-02-04T04:17:33.214Z,1.48
2023-02-04T04:19:59.655Z,1.45
2023-02-04T04:22:26.396Z,1.42
2023-02-04T04:24:53.201Z,1.39
2023-02-04T04:27:19.677Z,1.35
2023-02-04T04:29:46.135Z,1.33
2023-02-04T04:32:12.668Z,1.33
2023-02-04T04:34:39.079Z,1.34
2023-02-04T04:37:05.728Z,1.32
2023-02-04T04:39:32.215Z,1.29
2023-02-04T04:41:58.707Z,1.28
2023-02-04T04:44:25.285Z,1.24
2023-02-04T04:46:51.943Z,1.19
2023-02-04T04:49:18.375Z,1.16
2023-02-04T04:51:44.899Z,1.13
2023-02-04T04:54:11.347Z,1.13
2023-02-04T04:56:37.782Z,1.11
2023-02-04T04:59:04.835Z,1.08
2023-02-04T05:01:31.540Z,1.06
2023-02-04T05:03:58.187Z,1.03
2023-02-04T05:06:25.465Z,1.03
2023-02-04T05:08:52.700Z,1.02
2023-02-04T05:11:19.402Z,0.99
2023-02-04T05:13:46.705Z,0.97
2023-02-04T05:16:13.468Z,0.94
2023-02-04T05:18:41.035Z,0.88
2023-02-04T05:21:08.591Z,0.81
2023-02-04T05:23:35.424Z,0.70
2023-02-04T05:26:01.813Z,0.50
2023-02-04T05:28:28.407Z,0.30
2023-02-04T05:30:54.872Z,0.10
2023-02-04T05:33:21.377Z,-0.04
2023-02-04T05:35:49.852Z,-0.16
2023-02-04T05:38:16.442Z,-0.24
2023-02-04T05:40:42.871Z,-0.31
2023-02-04T05:43:09.306Z,-0.37
2023-02-04T05:45:35.898Z,-0.42
2023-02-04T05:48:02.467Z,-0.46
2023-02-04T05:50:28.909Z,-0.50
2023-02-04T05:52:55.332Z,-0.55
2023-02-04T05:55:21.761Z,-0.59
2023-02-04T05:57:48.419Z,-0.66
2023-02-04T06:00:15.107Z,-0.72
2023-02-04T06:02:41.810Z,-0.78
2023-02-04T06:05:08.790Z,-0.85
2023-02-04T06:07:35.956Z,-0.90
2023-02-04T06:10:02.698Z,-0.95
2023-02-04T06:12:29.295Z,-0.99
2023-02-04T06:14:55.694Z,-1.04
2023-02-04T06:17:22.116Z,-1.06
2023-02-04T06:19:48.739Z,-1.07
2023-02-04T06:22:15.172Z,-1.09
2023-02-04T06:24:41.700Z,-1.12
2023-02-04T06:27:08.341Z,-1.17
2023-02-04T06:29:34.874Z,-1.24
2023-02-04T06:32:01.516Z,-1.27
2023-02-04T06:34:28.395Z,-1.32
2023-02-04T06:36:54.904Z,-1.37
2023-02-04T06:39:21.313Z,-1.40
2023-02-04T06:41:47.780Z,-1.44
2023-02-04T06:44:14.326Z,-1.49
2023-02-04T06:46:40.827Z,-1.54
2023-02-04T06:49:07.711Z,-1.57
2023-02-04T06:51:34.264Z,-1.60
2023-02-04T06:54:01.102Z,-1.63
2023-02-04T06:56:27.577Z,-1.64
2023-02-04T06:58:54.076Z,-1.70
2023-02-04T07:01:20.526Z,-1.73
2023-02-04T07:03:47.056Z,-1.77
2023-02-04T07:06:13.696Z,-1.79
2023-02-04T07:08:40.111Z,-1.82
2023-02-04T07:11:06.903Z,-1.85
2023-02-04T07:13:33.417Z,-1.86
2023-02-04T07:15:59.959Z,-1.87
2023-02-04T07:18:26.603Z,-1.87
2023-02-04T07:20:53.122Z,-1.88
2023-02-04T07:23:19.765Z,-1.89
2023-02-04T07:25:46.307Z,-1.90
2023-02-04T07:28:12.808Z,-1.90
2023-02-04T07:30:39.508Z,-1.91
2023-02-04T07:33:06.128Z,-1.92
2023-02-04T07:35:32.588Z,-1.94
2023-02-04T07:37:58.995Z,-1.96
2023-02-04T07:40:25.470Z,-1.96
2023-02-04T07:42:52.162Z,-1.98
2023-02-04T07:45:18.637Z,-1.99
2023-02-04T07:47:45.243Z,-2.01
2023-02-04T07:50:11.867Z,-2.02
2023-02-04T07:52:38.414Z,-2.03
2023-02-04T07:55:06.640Z,-2.03
2023-02-04T07:57:33.185Z,-2.03
2023-02-04T08:00:00.111Z,-2.01
2023-02-04T08:02:27.494Z,-1.99
2023-02-04T08:04:54.177Z,-1.97
2023-02-04T08:07:20.657Z,-1.99
2023-02-04T08:09:47.161Z,-2.01
2023-02-04T08:12:13.891Z,-2.02
2023-02-04T08:14:40.298Z,-2.03
2023-02-04T08:17:06.758Z,-2.09
2023-02-04T08:19:33.530Z,-2.13
2023-02-04T08:22:00.021Z,-2.14
2023-02-04T08:24:26.473Z,-2.16
2023-02-04T08:26:53.064Z,-2.14
2023-02-04T08:29:20.092Z,-2.14
2023-02-04T08:31:47.083Z,-2.15
2023-02-04T08:34:13.617Z,-2.17
2023-02-04T08:36:40.096Z,-2.16
2023-02-04T08:39:06.714Z,-2.15
2023-02-04T08:41:33.170Z,-2.11
2023-02-04T08:43:59.618Z,-2.09
2023-02-04T08:46:26.291Z,-2.05
2023-02-04T08:48:52.809Z,-2.01
2023-02-04T08:51:19.252Z,-1.98
2023-02-04T08:53:49.330Z,-1.99
2023-02-04T08:56:15.781Z,-1.98
2023-02-04T08:58:43.467Z,-1.96
2023-02-04T09:01:10.447Z,-1.97
2023-02-04T09:03:37.890Z,-1.99
2023-02-04T09:06:06.165Z,-2.00
2023-02-04T09:08:32.840Z,-2.03
2023-02-04T09:10:59.350Z,-2.08
2023-02-04T09:13:25.875Z,-2.14
2023-02-04T09:15:54.039Z,-2.20
2023-02-04T09:18:21.045Z,-2.28
2023-02-04T09:20:48.787Z,-2.26
2023-02-04T09:23:16.135Z,-2.12
2023-02-04T09:25:44.227Z,-1.96
2023-02-04T09:28:12.022Z,-1.81
2023-02-04T09:30:39.853Z,-1.69
2023-02-04T09:33:07.040Z,-1.57
2023-02-04T09:35:33.528Z,-1.47
2023-02-04T09:38:00.029Z,-1.37
2023-02-04T09:40:28.507Z,-1.31
2023-02-04T09:42:56.668Z,-1.34
2023-02-04T09:45:29.877Z,-1.37
2023-02-04T09:47:59.151Z,-1.36
2023-02-04T09:50:28.226Z,-1.24
2023-02-04T09:52:59.126Z,-1.08
2023-02-04T09:55:30.341Z,-1.05
2023-02-04T09:57:56.837Z,-1.01
2023-02-04T10:00:26.910Z,-0.98
2023-02-04T10:02:53.545Z,-0.91
2023-02-04T10:05:30.936Z,-0.92
2023-02-04T10:07:58.771Z,-0.91
2023-02-04T10:10:27.592Z,-0.80
2023-02-04T10:12:58.800Z,-0.72
2023-02-04T10:15:26.307Z,-0.68
2023-02-04T10:17:58.680Z,-0.77
2023-02-04T10:20:25.527Z,-0.87
2023-02-04T10:22:54.220Z,-0.99
2023-02-04T10:25:23.810Z,-1.14
2023-02-04T10:27:55.958Z,-1.25
2023-02-04T10:30:27.309Z,-1.34
2023-02-04T10:32:54.639Z,-1.38
2023-02-04T10:35:22.855Z,-1.43
2023-02-04T10:38:03.826Z,-1.43
2023-02-04T10:40:32.974Z,-1.40
2023-02-04T10:43:00.254Z,-1.35
2023-02-04T10:45:29.978Z,-1.31
2023-02-04T10:47:57.411Z,-1.29
2023-02-04T10:50:26.392Z,-1.27
2023-02-04T10:52:58.800Z,-1.22
2023-02-04T10:55:25.278Z,-1.21
2023-02-04T10:57:52.861Z,-1.25
2023-02-04T11:00:20.745Z,-1.26
2023-02-04T11:03:05.059Z,-1.23
2023-02-04T11:05:34.338Z,-1.15
2023-02-04T11:08:02.181Z,-1.14
2023-02-04T11:10:31.842Z,-1.19
2023-02-04T11:12:58.592Z,-1.28
2023-02-04T11:15:44.868Z,-1.31
2023-02-04T11:18:13.329Z,-1.29
2023-02-04T11:20:40.485Z,-1.31
2023-02-04T11:23:25.711Z,-1.33
2023-02-04T11:26:07.663Z,-1.32
2023-02-04T11:28:55.914Z,-1.32
2023-02-04T11:31:22.418Z,-1.35
2023-02-04T11:33:50.955Z,-1.32
2023-02-04T11:36:18.010Z,-1.27
2023-02-04T11:38:47.245Z,-1.24
2023-02-04T11:41:28.820Z,-1.20
2023-02-04T11:43:56.548Z,-1.21
2023-02-04T11:46:23.913Z,-1.20
2023-02-04T11:48:55.144Z,-1.20
2023-02-04T11:51:28.743Z,-1.26
2023-02-04T11:53:55.482Z,-1.31
2023-02-04T11:56:23.474Z,-1.32
2023-02-04T11:58:51.344Z,-1.29
2023-02-04T12:01:19.793Z,-1.32
2023-02-04T12:03:48.977Z,-1.38
2023-02-04T12:06:23.784Z,-1.36
2023-02-04T12:08:50.515Z,-1.29
2023-02-04T12:11:29.387Z,-1.19
2023-02-04T12:13:58.392Z,-1.11
2023-02-04T12:16:25.662Z,-1.07
2023-02-04T12:18:52.201Z,-1.03
2023-02-04T12:21:19.078Z,-1.01
2023-02-04T12:23:45.506Z,-1.05
2023-02-04T12:26:12.565Z,-1.17
2023-02-04T12:28:39.100Z,-1.31
2023-02-04T12:31:05.658Z,-1.43
2023-02-04T12:33:32.478Z,-1.54
2023-02-04T12:35:59.117Z,-1.59
2023-02-04T12:38:25.593Z,-1.61
2023-02-04T12:40:52.200Z,-1.60
2023-02-04T12:43:18.744Z,-1.53
2023-02-04T12:45:45.196Z,-1.41
2023-02-04T12:48:12.475Z,-1.38
2023-02-04T12:50:39.072Z,-1.33
2023-02-04T12:53:05.508Z,-1.38
2023-02-04T12:55:32.761Z,-1.55
2023-02-04T12:57:59.460Z,-1.68
2023-02-04T13:00:25.939Z,-1.79
2023-02-04T13:02:52.377Z,-1.86
2023-02-04T13:05:18.912Z,-1.91
2023-02-04T13:07:45.345Z,-1.96
2023-02-04T13:10:15.163Z,-2.03
2023-02-04T13:12:41.829Z,-2.04
2023-02-04T13:15:09.272Z,-2.01
2023-02-04T13:17:36.325Z,-2.04
2023-02-04T13:20:03.680Z,-2.05
2023-02-04T13:22:30.333Z,-2.08
2023-02-04T13:24:56.826Z,-2.08
2023-02-04T13:27:23.404Z,-2.06
2023-02-04T13:29:49.864Z,-2.02
2023-02-04T13:32:16.379Z,-1.94
2023-02-04T13:34:42.801Z,-1.87
2023-02-04T13:37:09.253Z,-1.81
2023-02-04T13:39:35.702Z,-1.80
2023-02-04T13:42:04.376Z,-1.78
2023-02-04T13:44:30.981Z,-1.79
2023-02-04T13:46:57.595Z,-1.82
2023-02-04T13:49:24.113Z,-1.88
2023-02-04T13:51:50.577Z,-1.91
2023-02-04T13:54:17.040Z,-1.93
2023-02-04T13:56:43.511Z,-1.91
2023-02-04T13:59:10.156Z,-1.80
2023-02-04T14:01:36.695Z,-1.67
2023-02-04T14:04:03.642Z,-1.65
2023-02-04T14:06:30.139Z,-1.67
2023-02-04T14:08:56.719Z,-1.67
2023-02-04T14:11:23.154Z,-1.69
2023-02-04T14:13:49.592Z,-1.77
2023-02-04T14:16:16.360Z,-1.89
2023-02-04T14:18:42.882Z,-2.02
2023-02-04T14:21:09.403Z,-2.13
2023-02-04T14:23:36.045Z,-2.21
2023-02-04T14:26:02.697Z,-2.27
2023-02-04T14:28:29.432Z,-2.33
2023-02-04T14:30:55.995Z,-2.37
2023-02-04T14:33:23.028Z,-2.40
2023-02-04T14:35:49.565Z,-2.43
2023-02-04T14:38:16.114Z,-2.46
2023-02-04T14:40:44.884Z,-2.50
2023-02-04T14:43:12.262Z,-2.53
2023-02-04T14:45:39.973Z,-2.56
2023-02-04T14:48:07.166Z,-2.57
2023-02-04T14:50:34.314Z,-2.60
2023-02-04T14:53:01.180Z,-2.61
2023-02-04T14:55:27.719Z,-2.62
2023-02-04T14:57:54.387Z,-2.64
2023-02-04T15:00:21.507Z,-2.68
2023-02-04T15:02:48.048Z,-2.70
2023-02-04T15:05:14.993Z,-2.72
2023-02-04T15:07:41.742Z,-2.76
2023-02-04T15:10:09.864Z,-2.79
2023-02-04T15:12:36.661Z,-2.81
2023-02-04T15:15:04.529Z,-2.82
2023-02-04T15:17:31.172Z,-2.84
2023-02-04T15:19:57.811Z,-2.85
2023-02-04T15:22:24.326Z,-2.85
2023-02-04T15:24:50.895Z,-2.86
2023-02-04T15:27:17.573Z,-2.88
2023-02-04T15:29:44.166Z,-2.88
2023-02-04T15:32:10.711Z,-2.88
2023-02-04T15:34:37.256Z,-2.89
2023-02-04T15:37:03.933Z,-2.91
2023-02-04T15:39:30.582Z,-2.92
2023-02-04T15:41:57.284Z,-2.93
2023-02-04T15:44:23.947Z,-2.95
2023-02-04T15:46:50.571Z,-2.97
2023-02-04T15:49:16.971Z,-2.97
2023-02-04T15:51:43.432Z,-2.96
2023-02-04T15:54:09.974Z,-2.97
2023-02-04T15:56:36.503Z,-3.00
2023-02-04T15:59:03.157Z,-3.06
2023-02-04T16:01:29.934Z,-3.10
2023-02-04T16:03:56.386Z,-3.15
2023-02-04T16:06:23.802Z,-3.18
2023-02-04T16:08:50.338Z,-3.21
2023-02-04T16:11:17.005Z,-3.25
2023-02-04T16:13:43.517Z,-3.32
2023-02-04T16:16:09.973Z,-3.39
2023-02-04T16:18:36.597Z,-3.45
2023-02-04T16:21:03.249Z,-3.50
2023-02-04T16:23:29.675Z,-3.53
2023-02-04T16:25:56.316Z,-3.55
2023-02-04T16:28:22.820Z,-3.56
2023-02-04T16:30:49.600Z,-3.57
2023-02-04T16:33:16.166Z,-3.58
2023-02-04T16:35:58.348Z,-3.57
2023-02-04T16:38:25.284Z,-3.58
2023-02-04T16:40:52.025Z,-3.56
2023-02-04T16:43:18.577Z,-3.52
2023-02-04T16:45:45.024Z,-3.50
2023-02-04T16:48:11.751Z,-3.47
2023-02-04T16:50:38.395Z,-3.42
2023-02-04T16:53:05.335Z,-3.39
2023-02-04T16:55:32.638Z,-3.38
2023-02-04T16:57:59.706Z,-3.35
2023-02-04T17:00:26.483Z,-3.31
2023-02-04T17:02:53.070Z,-3.27
2023-02-04T17:05:20.067Z,-3.23
2023-02-04T17:07:46.609Z,-3.18
2023-02-04T17:10:13.250Z,-3.15
2023-02-04T17:12:39.703Z,-3.12
2023-02-04T17:15:06.838Z,-3.10
2023-02-04T17:17:33.372Z,-3.08
2023-02-04T17:19:59.926Z,-3.07
2023-02-04T17:22:26.447Z,-3.07
2023-02-04T17:24:53.205Z,-3.05
2023-02-04T17:27:19.692Z,-3.05
2023-02-04T17:29:46.127Z,-3.06
2023-02-04T17:32:12.522Z,-3.06
2023-02-04T17:34:39.065Z,-3.06
2023-02-04T17:37:05.522Z,-3.07
2023-02-04T17:39:31.981Z,-3.08
2023-02-04T17:41:58.480Z,-3.08
2023-02-04T17:44:27.109Z,-3.10
2023-02-04T17:46:54.517Z,-3.12
2023-02-04T17:49:21.166Z,-3.13
2023-02-04T17:51:47.908Z,-3.14
2023-02-04T17:54:14.748Z,-3.17
2023-02-04T17:56:41.393Z,-3.19
2023-02-04T17:59:11.325Z,-3.20
2023-02-04T18:01:38.433Z,-3.21
2023-02-04T18:04:11.630Z,-3.21
2023-02-04T18:06:38.197Z,-3.22
2023-02-04T18:09:14.875Z,-3.24
2023-02-04T18:11:41.743Z,-3.24
2023-02-04T18:14:16.268Z,-3.25
2023-02-04T18:16:44.153Z,-3.27
2023-02-04T18:19:28.374Z,-3.27
2023-02-04T18:21:55.709Z,-3.28
2023-02-04T18:24:34.764Z,-3.28
2023-02-04T18:27:08.650Z,-3.27
2023-02-04T18:29:44.019Z,-3.29
2023-02-04T18:32:25.795Z,-3.30
2023-02-04T18:34:54.977Z,-3.32
2023-02-04T18:37:32.315Z,-3.31
2023-02-04T18:40:10.824Z,-3.31
2023-02-04T18:42:39.996Z,-3.32
2023-02-04T18:45:31.254Z,-3.32
2023-02-04T18:48:00.743Z,-3.34
2023-02-04T18:50:30.674Z,-3.35
2023-02-04T18:53:23.312Z,-3.34
2023-02-04T18:55:52.001Z,-3.34
2023-02-04T18:58:27.760Z,-3.33
2023-02-04T19:01:20.415Z,-3.32
2023-02-04T19:03:50.508Z,-3.31
2023-02-04T19:06:30.090Z,-3.30
2023-02-04T19:09:10.431Z,-3.30
2023-02-04T19:11:40.675Z,-3.32
2023-02-04T19:14:26.032Z,-3.36
2023-02-04T19:16:54.219Z,-3.38
2023-02-04T19:19:55.787Z,-3.41
2023-02-04T19:22:45.870Z,-3.43
2023-02-04T19:25:24.781Z,-3.45
2023-02-04T19:27:55.170Z,-3.47
2023-02-04T19:30:28.178Z,-3.49
2023-02-04T19:32:59.486Z,-3.51
2023-02-04T19:35:35.422Z,-3.53
2023-02-04T19:38:29.292Z,-3.55
2023-02-04T19:40:55.938Z,-3.57
2023-02-04T19:43:34.252Z,-3.58
2023-02-04T19:46:02.185Z,-3.57
2023-02-04T19:48:37.850Z,-3.59
2023-02-04T19:51:21.119Z,-3.59
2023-02-04T19:53:48.868Z,-3.59
2023-02-04T19:56:41.796Z,-3.58
2023-02-04T19:59:24.154Z,-3.60
2023-02-04T20:02:23.875Z,-3.64
2023-02-04T20:04:53.994Z,-3.67
2023-02-04T20:07:26.201Z,-3.70
2023-02-04T20:10:22.515Z,-3.73
2023-02-04T20:12:52.326Z,-3.73
2023-02-04T20:15:21.115Z,-3.73
2023-02-04T20:17:49.706Z,-3.73
2023-02-04T20:20:31.716Z,-3.75
2023-02-04T20:23:17.678Z,-3.77
2023-02-04T20:25:47.439Z,-3.77
2023-02-04T20:28:36.897Z,-3.77
2023-02-04T20:31:17.021Z,-3.79
2023-02-04T20:33:53.728Z,-3.80
2023-02-04T20:36:26.200Z,-3.81
2023-02-04T20:39:16.952Z,-3.81
2023-02-04T20:41:43.593Z,-3.78
2023-02-04T20:44:23.205Z,-3.79
2023-02-04T20:46:49.745Z,-3.96
2023-02-04T20:49:24.800Z,-4.18
2023-02-04T20:51:58.934Z,-4.35
2023-02-04T20:54:29.543Z,-4.47
2023-02-04T20:57:11.460Z,-4.55
2023-02-04T20:59:37.977Z,-4.62
2023-02-04T21:02:18.550Z,-4.66
2023-02-04T21:04:45.312Z,-4.67
2023-02-04T21:07:20.743Z,-4.69
2023-02-04T21:09:47.807Z,-4.73
2023-02-04T21:12:15.366Z,-4.77
2023-02-04T21:14:42.405Z,-4.83
2023-02-04T21:17:09.066Z,-4.88
2023-02-04T21:19:35.572Z,-4.96
2023-02-04T21:22:02.555Z,-5.02
2023-02-04T21:24:29.480Z,-5.08
2023-02-04T21:26:55.922Z,-5.12
2023-02-04T21:29:22.850Z,-5.11
2023-02-04T21:31:49.936Z,-5.07
2023-02-04T21:34:16.381Z,-5.05
2023-02-04T21:36:42.900Z,-5.03
2023-02-04T21:39:09.648Z,-5.02
2023-02-04T21:41:36.066Z,-4.97
2023-02-04T21:44:02.625Z,-4.94
2023-02-04T21:46:29.088Z,-4.92
2023-02-04T21:48:55.904Z,-4.89
2023-02-04T21:51:22.551Z,-4.86
2023-02-04T21:53:49.088Z,-4.81
2023-02-04T21:56:15.623Z,-4.76
2023-02-04T21:58:42.204Z,-4.73
2023-02-04T22:01:08.656Z,-4.69
2023-02-04T22:03:35.169Z,-4.67
2023-02-04T22:06:01.804Z,-4.65
2023-02-04T22:08:28.318Z,-4.65
2023-02-04T22:10:54.849Z,-4.66
2023-02-04T22:13:21.480Z,-4.68
2023-02-04T22:15:48.165Z,-4.67
2023-02-04T22:18:14.888Z,-4.70
2023-02-04T22:20:41.670Z,-4.74
2023-02-04T22:23:08.502Z,-4.76
2023-02-04T22:25:35.333Z,-4.78
2023-02-04T22:28:02.153Z,-4.77
2023-02-04T22:30:28.692Z,-4.78
2023-02-04T22:32:55.257Z,-4.78
2023-02-04T22:35:21.988Z,-4.79
2023-02-04T22:37:48.449Z,-4.80
2023-02-04T22:40:14.959Z,-4.79
2023-02-04T22:42:41.555Z,-4.77
2023-02-04T22:45:08.753Z,-4.75
2023-02-04T22:47:35.267Z,-4.72
2023-02-04T22:50:01.823Z,-4.69
2023-02-04T22:52:28.412Z,-4.65
2023-02-04T22:54:54.876Z,-4.62
2023-02-04T22:57:21.441Z,-4.60
2023-02-04T22:59:47.954Z,-4.59
2023-02-04T23:02:14.432Z,-4.58
2023-02-04T23:04:43.604Z,-4.56
2023-02-04T23:07:11.598Z,-4.55
2023-02-04T23:09:38.017Z,-4.55
2023-02-04T23:12:05.145Z,-4.55
2023-02-04T23:14:31.608Z,-4.54
2023-02-04T23:16:58.130Z,-4.52
2023-02-04T23:19:24.583Z,-4.50
2023-02-04T23:21:51.084Z,-4.49
2023-02-04T23:24:17.552Z,-4.48
2023-02-04T23:26:44.058Z,-4.47
2023-02-04T23:29:10.621Z,-4.45
2023-02-04T23:31:37.081Z,-4.46
2023-02-04T23:34:03.604Z,-4.47
2023-02-04T23:36:30.063Z,-4.48
2023-02-04T23:38:56.608Z,-4.49
2023-02-04T23:41:23.098Z,-4.48
2023-02-04T23:43:49.964Z,-4.49
2023-02-04T23:46:16.567Z,-4.50
2023-02-04T23:48:43.252Z,-4.51
2023-02-04T23:51:09.671Z,-4.51
2023-02-04T23:53:36.119Z,-4.51
2023-02-04T23:56:03.065Z,-4.52
2023-02-04T23:58:29.471Z,-4.52
